Terminal Aerodrome Forecast
Issued by NWS Wilmington, OH

Current Version | Previous Version | Text Only | Print | Product List | Glossary Off
Versions: 1 2 3 4 5 6 7 8 9 10 11 12 13 14 15 16 17 18 19 20 21

378
FTUS41 KILN 020540
TAFCMH
TAF
KCMH 020540Z 0206/0306 VRB04KT 5SM -TSRA BR BKN040CB
      TEMPO 0206/0208 2SM TSRA BR OVC030CB
     FM020900 34006KT 5SM BR SCT015
      TEMPO 0209/0213 2SM BR BKN015
     FM021300 32006KT P6SM OVC025
     FM021700 33006KT P6SM SCT025 BKN150
     FM030000 02007KT 5SM BR OVC040=

USA.gov is the U.S. government's official web portal to all federal, state and local government web resources and services.